Nora, Virginia
Current Conditions -  °F | °C
As of 10:55 PM on Tuesday 25 Nov 2014 (Local Time) from KLNP Reporting Station
Clear Clear  
Wind Chill: 43°   Ceiling: Unl
Heat Index: 43°   Visibility: 10mi
Dew Point: 23°   Wind: 0mph
Humidity: 46%   Direction: NA
Pressure: 30.09"   Gusts: NA
Location:  37.07°N, 82.35°W
Report Text: KLNP 260355Z AUTO 00000KT 10SM CLR 06/M05 A3009 RMK AO2
Loading
Personal Weather Stations






























Interactive Weather Map New forecast layout! Learn more

10-Day Weather Forecast

Advertisements
Track Severe Weather on mobile